Time;durP1;ratioP1;P1;durP2;ratioP2;P2;SDS_P1;SDS_P2;PMS_P1;PMS_P2;Temp;Humidity;BMP_temperature;BMP_pressure;BME280_temperature;BME280_humidity;BME280_pressure;Samples;Min_cycle;Max_cycle;Signal;HPM_P1;HPM_P2
2023/01/22 00:02:02;;;;;;;13.63;8.55;;;;;;;-9.59;57.18;102492.78;4918762;29;20134;-86
2023/01/22 00:04:28;;;;;;;17.05;8.30;;;;;;;-9.64;57.19;102486.47;4919455;29;20048;-87
2023/01/22 00:06:54;;;;;;;14.68;7.30;;;;;;;-9.70;57.38;102484.47;4902550;29;20609;-86
2023/01/22 00:09:21;;;;;;;16.27;8.07;;;;;;;-9.71;57.36;102479.19;4902897;29;20808;-85
2023/01/22 00:11:51;;;;;;;13.95;7.88;;;;;;;-9.75;57.07;102474.66;4903371;29;20067;-86
2023/01/22 00:14:17;;;;;;;17.92;7.38;;;;;;;-9.77;57.07;102486.66;4918281;29;20048;-87
2023/01/22 00:16:43;;;;;;;18.10;7.82;;;;;;;-9.83;57.03;102482.03;4902725;29;20060;-87
2023/01/22 00:19:09;;;;;;;18.55;8.90;;;;;;;-9.95;57.21;102478.81;4902687;29;20043;-87
2023/01/22 00:21:35;;;;;;;16.20;8.15;;;;;;;-9.94;57.37;102477.97;4919087;29;20451;-87
2023/01/22 00:24:02;;;;;;;14.48;6.68;;;;;;;-9.95;57.46;102481.38;4902460;29;20067;-85
2023/01/22 00:26:28;;;;;;;14.27;7.85;;;;;;;-10.00;57.47;102472.47;4919338;29;20048;-85
2023/01/22 00:28:53;;;;;;;14.50;7.18;;;;;;;-9.91;57.46;102480.75;4917651;29;20044;-85
2023/01/22 00:31:19;;;;;;;12.50;7.35;;;;;;;-9.90;57.65;102479.91;4918700;29;20063;-86
2023/01/22 00:33:46;;;;;;;17.27;7.13;;;;;;;-9.92;57.98;102479.84;4920298;29;20048;-86
2023/01/22 00:36:18;;;;;;;10.98;6.40;;;;;;;-9.87;58.12;102474.91;4936180;29;20055;-84
2023/01/22 00:38:47;;;;;;;17.58;6.95;;;;;;;-9.89;57.78;102468.75;4922532;29;20051;-84
2023/01/22 00:41:13;;;;;;;12.98;7.30;;;;;;;-9.88;57.72;102473.16;4925278;29;20059;-84
2023/01/22 00:43:39;;;;;;;12.05;6.57;;;;;;;-9.90;57.69;102477.34;4907313;29;20142;-85
2023/01/22 00:46:11;;;;;;;18.10;8.20;;;;;;;-9.91;57.90;102467.81;4904670;29;20127;-84
2023/01/22 00:48:37;;;;;;;13.73;7.63;;;;;;;-9.93;57.63;102470.28;4921308;29;20052;-86
2023/01/22 00:51:04;;;;;;;17.67;7.05;;;;;;;-9.97;57.79;102472.63;4918425;29;20180;-85
2023/01/22 00:53:30;;;;;;;12.25;6.78;;;;;;;-9.97;57.96;102467.47;4917721;29;20108;-86
2023/01/22 00:55:58;;;;;;;13.70;6.60;;;;;;;-9.96;58.01;102471.84;4902921;29;20169;-88
2023/01/22 00:58:25;;;;;;;14.07;6.50;;;;;;;-9.98;58.30;102460.50;4919907;29;20040;-87
2023/01/22 01:00:51;;;;;;;10.85;5.97;;;;;;;-9.97;57.83;102464.88;4935035;29;20062;-86
2023/01/22 01:03:31;;;;;;;11.02;6.40;;;;;;;-9.96;58.26;102458.91;4901860;29;20071;-85
2023/01/22 01:06:05;;;;;;;9.10;5.68;;;;;;;-9.95;58.14;102455.50;4917541;29;20075;-86
2023/01/22 01:08:34;;;;;;;10.10;5.85;;;;;;;-9.95;58.42;102456.41;4900973;29;20138;-85
2023/01/22 01:11:04;;;;;;;9.75;5.95;;;;;;;-9.92;58.29;102460.84;4933742;29;20044;-86
2023/01/22 01:13:32;;;;;;;12.93;6.57;;;;;;;-9.95;58.25;102447.75;4901236;29;20082;-87
2023/01/22 01:16:04;;;;;;;14.90;6.72;;;;;;;-9.92;58.27;102458.25;4919568;29;20060;-88
2023/01/22 01:18:31;;;;;;;11.52;7.25;;;;;;;-9.99;58.35;102457.03;4909177;29;20056;-85
2023/01/22 01:20:59;;;;;;;15.20;7.00;;;;;;;-10.04;58.40;102450.72;4918116;29;20052;-87
2023/01/22 01:23:26;;;;;;;15.98;7.30;;;;;;;-10.07;58.74;102456.63;4917779;29;20051;-85
2023/01/22 01:25:52;;;;;;;10.23;6.25;;;;;;;-10.09;58.23;102447.88;4902280;29;20099;-84
2023/01/22 01:28:19;;;;;;;10.10;6.38;;;;;;;-10.18;58.58;102450.00;4934406;29;20436;-85
2023/01/22 01:30:45;;;;;;;10.70;6.60;;;;;;;-10.22;58.32;102437.72;4917111;29;20500;-87
2023/01/22 01:33:11;;;;;;;11.85;5.88;;;;;;;-10.19;58.34;102448.22;4916678;29;20052;-88
2023/01/22 01:35:37;;;;;;;12.15;6.25;;;;;;;-10.28;58.35;102442.56;4901182;29;20050;-86
2023/01/22 01:38:03;;;;;;;11.18;6.10;;;;;;;-10.30;58.44;102444.22;4903849;29;20130;-86
2023/01/22 01:40:29;;;;;;;11.45;5.20;;;;;;;-10.31;58.91;102440.69;4927654;29;20040;-86
2023/01/22 01:42:56;;;;;;;9.40;4.95;;;;;;;-10.36;59.65;102438.69;4926172;29;20048;-85
2023/01/22 01:45:29;;;;;;;12.32;5.32;;;;;;;-10.28;59.77;102447.75;4917315;29;20080;-86
2023/01/22 01:48:20;;;;;;;10.07;5.32;;;;;;;-10.29;59.16;102422.69;4901463;29;20456;-86
2023/01/22 01:50:52;;;;;;;9.73;5.57;;;;;;;-10.19;59.35;102435.28;4916179;29;20460;-85
2023/01/22 01:53:18;;;;;;;10.88;6.07;;;;;;;-10.18;59.02;102442.25;4916101;29;20523;-86
2023/01/22 01:55:44;;;;;;;12.13;6.55;;;;;;;-10.18;59.13;102436.19;4900596;29;20048;-86
2023/01/22 01:58:20;;;;;;;9.30;5.55;;;;;;;-10.21;59.29;102426.53;4900296;29;20048;-86
2023/01/22 02:00:50;;;;;;;9.98;5.30;;;;;;;-10.30;59.50;102426.09;4885663;29;20412;-86
2023/01/22 02:03:20;;;;;;;8.77;5.30;;;;;;;-10.32;59.19;102423.41;4916005;29;20051;-86
2023/01/22 02:05:46;;;;;;;11.13;5.57;;;;;;;-10.27;59.31;102421.06;4933606;29;20135;-85
2023/01/22 02:08:13;;;;;;;9.00;5.65;;;;;;;-10.24;59.31;102420.31;4902757;29;20486;-87
2023/01/22 02:10:39;;;;;;;10.95;5.80;;;;;;;-10.23;59.39;102410.03;4901659;29;20047;-88
2023/01/22 02:13:18;;;;;;;9.25;6.05;;;;;;;-10.30;59.04;102400.25;4901459;29;20488;-86
2023/01/22 02:15:46;;;;;;;9.40;5.38;;;;;;;-10.33;59.10;102405.25;4917484;29;20432;-86
2023/01/22 02:18:13;;;;;;;12.23;6.13;;;;;;;-10.34;59.44;102413.78;4917175;29;20048;-85
2023/01/22 02:20:50;;;;;;;10.60;5.50;;;;;;;-10.36;59.44;102405.94;4900800;29;20047;-86
2023/01/22 02:23:16;;;;;;;8.68;5.50;;;;;;;-10.36;59.26;102412.81;4933591;29;20059;-86
2023/01/22 02:25:41;;;;;;;10.65;6.00;;;;;;;-10.43;59.62;102413.31;4916427;29;20048;-86
2023/01/22 02:28:10;;;;;;;10.55;5.20;;;;;;;-10.42;59.70;102407.31;4916319;29;20500;-86
2023/01/22 02:30:36;;;;;;;11.60;5.15;;;;;;;-10.42;60.02;102399.56;4931785;29;20091;-87
2023/01/22 02:33:02;;;;;;;6.43;4.80;;;;;;;-10.36;59.92;102416.31;4916017;29;20084;-87
2023/01/22 02:35:28;;;;;;;6.25;4.53;;;;;;;-10.35;60.16;102404.25;4900766;29;20048;-85
2023/01/22 02:37:54;;;;;;;7.82;4.35;;;;;;;-10.37;60.68;102408.47;4931674;29;20098;-84
2023/01/22 02:40:20;;;;;;;5.22;2.70;;;;;;;-10.35;61.43;102405.13;4915975;29;20056;-86
2023/01/22 02:42:46;;;;;;;7.15;3.22;;;;;;;-10.32;62.09;102397.56;4916354;29;20051;-85
2023/01/22 02:45:12;;;;;;;6.55;3.72;;;;;;;-10.23;61.96;102396.22;4932440;29;20048;-83
2023/01/22 02:47:38;;;;;;;6.50;4.03;;;;;;;-10.09;61.83;102416.84;4933298;29;20044;-86
2023/01/22 02:50:05;;;;;;;7.85;4.07;;;;;;;-10.11;61.60;102387.44;4903249;29;20048;-83
2023/01/22 02:52:31;;;;;;;9.00;4.05;;;;;;;-10.07;61.42;102394.53;4902350;29;20047;-86
2023/01/22 02:54:57;;;;;;;5.35;3.05;;;;;;;-9.99;61.45;102401.81;4917302;29;20040;-86
2023/01/22 02:57:23;;;;;;;6.38;3.78;;;;;;;-10.06;61.58;102401.50;4900432;29;20098;-85
2023/01/22 02:59:49;;;;;;;9.70;4.35;;;;;;;-9.94;61.16;102410.69;4916289;29;20044;-85
2023/01/22 03:02:15;;;;;;;5.55;3.67;;;;;;;-9.97;60.88;102400.19;4917858;29;20126;-85
2023/01/22 03:04:41;;;;;;;3.72;3.33;;;;;;;-9.90;60.85;102423.00;4918655;29;20048;-85
2023/01/22 03:07:08;;;;;;;4.90;3.70;;;;;;;-9.96;60.32;102407.16;4932974;29;20048;-83
2023/01/22 03:09:34;;;;;;;8.55;4.30;;;;;;;-9.93;60.43;102405.59;4931942;29;20155;-83
2023/01/22 03:12:00;;;;;;;5.35;3.20;;;;;;;-9.93;60.40;102413.34;4885194;29;20047;-85
2023/01/22 03:22:43;;;;;;;9.82;4.15;;;;;;;-10.07;60.47;102425.59;4934348;29;20066;-83
2023/01/22 03:25:08;;;;;;;5.30;4.07;;;;;;;-10.07;60.50;102425.59;4919891;29;20044;-84
2023/01/22 03:27:35;;;;;;;7.45;4.32;;;;;;;-10.12;60.54;102421.84;4918387;29;20127;-84
2023/01/22 03:30:01;;;;;;;7.30;4.55;;;;;;;-10.29;60.86;102418.41;4916485;29;20135;-83
2023/01/22 03:32:32;;;;;;;7.70;4.35;;;;;;;-10.24;60.41;102426.38;4936599;29;20044;-83
2023/01/22 03:34:58;;;;;;;7.18;4.20;;;;;;;-10.24;60.99;102418.63;4921019;29;20201;-86
2023/01/22 03:37:28;;;;;;;3.92;2.72;;;;;;;-10.33;61.02;102415.59;4921289;29;20051;-84
2023/01/22 03:39:56;;;;;;;7.80;4.72;;;;;;;-10.33;61.15;102418.16;4920761;29;20581;-86
2023/01/22 03:42:31;;;;;;;7.72;3.95;;;;;;;-10.42;61.13;102422.81;4939450;29;20071;-82
2023/01/22 03:44:57;;;;;;;7.30;4.20;;;;;;;-10.49;61.54;102418.13;4907771;29;20082;-84
2023/01/22 03:47:24;;;;;;;9.32;3.58;;;;;;;-10.53;61.82;102409.31;4909668;29;20078;-85
2023/01/22 03:49:50;;;;;;;7.10;4.00;;;;;;;-10.43;61.60;102409.00;4939052;29;20044;-83
2023/01/22 03:52:16;;;;;;;7.65;3.88;;;;;;;-10.31;61.27;102421.72;4922899;29;20563;-79
2023/01/22 03:54:41;;;;;;;10.95;4.15;;;;;;;-10.31;61.15;102419.13;4893907;29;20424;-82
2023/01/22 03:57:09;;;;;;;5.82;3.72;;;;;;;-10.26;61.37;102419.41;4850942;29;20512;-84
2023/01/22 03:59:37;;;;;;;6.00;3.00;;;;;;;-10.39;61.18;102415.25;4867355;29;20048;-84
2023/01/22 04:02:03;;;;;;;9.30;5.38;;;;;;;-10.44;60.95;102407.25;4900696;29;20056;-84
2023/01/22 04:04:33;;;;;;;;;;;;;;;-10.39;61.28;102420.41;4883436;29;20052;-86
2023/01/22 04:06:58;;;;;;;8.93;3.60;;;;;;;-10.40;60.90;102416.06;4897294;29;19923;-90
2023/01/22 04:09:24;;;;;;;8.70;3.80;;;;;;;-10.39;61.10;102415.25;4883459;29;20064;-89
2023/01/22 04:11:50;;;;;;;5.93;4.13;;;;;;;-10.32;61.14;102407.91;4898198;29;20048;-87
2023/01/22 04:14:17;;;;;;;8.27;4.50;;;;;;;-10.30;60.79;102420.94;4899818;29;20049;-87
2023/01/22 04:16:55;;;;;;;8.88;4.10;;;;;;;-10.34;60.65;102413.78;4883287;29;20072;-86
2023/01/22 04:19:27;;;;;;;9.38;5.22;;;;;;;-10.35;60.69;102418.06;4896150;29;20146;-90
2023/01/22 04:21:53;;;;;;;5.25;3.55;;;;;;;-10.32;60.21;102419.94;4897651;29;20048;-84
2023/01/22 04:24:19;;;;;;;7.80;4.35;;;;;;;-10.41;60.88;102416.88;4884588;29;20045;-90
2023/01/22 04:26:45;;;;;;;9.88;4.78;;;;;;;-10.35;60.73;102424.94;4897054;29;20533;-84
2023/01/22 04:29:13;;;;;;;9.25;5.65;;;;;;;-10.35;60.39;102415.47;4896822;29;20633;-84
2023/01/22 04:31:39;;;;;;;7.53;4.50;;;;;;;-10.28;60.09;102424.47;4897678;29;20072;-90
2023/01/22 04:34:31;;;;;;;9.65;4.68;;;;;;;-10.29;60.08;102422.69;4874730;29;20056;-81
2023/01/22 04:37:13;;;;;;;5.88;4.03;;;;;;;-10.44;59.65;102424.47;4897064;29;20044;-85
2023/01/22 04:39:39;;;;;;;14.05;5.70;;;;;;;-10.58;59.57;102419.41;4901268;29;20060;-90
2023/01/22 04:42:10;;;;;;;17.70;5.45;;;;;;;-10.45;59.72;102418.41;4903243;29;20041;-88
2023/01/22 04:44:35;;;;;;;18.92;5.97;;;;;;;-10.40;59.59;102418.66;4896559;29;20084;-88
2023/01/22 04:47:01;;;;;;;18.27;8.55;;;;;;;-10.32;59.13;102417.34;4881614;29;20069;-85
2023/01/22 04:49:27;;;;;;;23.35;10.23;;;;;;;-10.38;59.45;102423.09;4881725;29;20103;-89
2023/01/22 04:51:55;;;;;;;29.85;12.20;;;;;;;-10.30;59.20;102424.41;4902276;29;20060;-87
2023/01/22 04:54:21;;;;;;;31.80;11.35;;;;;;;-10.27;59.41;102410.72;4893482;29;20049;-90
2023/01/22 04:56:47;;;;;;;27.35;10.35;;;;;;;-10.15;58.92;102429.47;4896260;29;20080;-90
2023/01/22 04:59:13;;;;;;;22.33;11.18;;;;;;;-10.13;58.80;102419.19;4898943;29;20052;-89
2023/01/22 05:01:39;;;;;;;11.50;5.70;;;;;;;-10.12;58.77;102420.97;4910128;29;20104;-91
2023/01/22 05:04:05;;;;;;;9.23;4.88;;;;;;;-10.06;58.66;102423.88;4911765;29;20140;-89
2023/01/22 05:06:33;;;;;;;8.00;5.38;;;;;;;-10.00;58.66;102425.88;4908954;29;20049;-92
2023/01/22 05:09:00;;;;;;;8.90;5.53;;;;;;;-9.98;58.85;102432.06;4900443;29;20556;-87
2023/01/22 05:11:29;;;;;;;9.30;4.53;;;;;;;-9.97;58.85;102428.66;4881057;29;20051;-91
2023/01/22 05:14:00;;;;;;;7.97;4.13;;;;;;;-9.93;58.87;102422.81;4895093;29;20060;-85
2023/01/22 05:16:26;;;;;;;9.35;3.90;;;;;;;-9.73;58.69;102422.19;4894921;29;20413;-84
2023/01/22 05:18:53;;;;;;;5.32;3.72;;;;;;;-9.68;58.41;102428.47;4896604;29;20048;-83
2023/01/22 05:21:20;;;;;;;16.95;4.70;;;;;;;-9.70;58.24;102421.41;4895535;29;20061;-83
2023/01/22 05:23:46;;;;;;;6.90;4.50;;;;;;;-9.67;58.24;102422.47;4878958;29;20061;-83
2023/01/22 05:26:12;;;;;;;3.63;3.10;;;;;;;-9.61;58.40;102412.44;4895130;29;20149;-88
2023/01/22 05:28:51;;;;;;;24.23;4.23;;;;;;;-9.48;58.13;102431.19;4895715;29;20417;-86
2023/01/22 05:31:35;;;;;;;5.45;4.00;;;;;;;-9.42;58.09;102432.38;4894933;29;20111;-86
2023/01/22 05:34:03;;;;;;;5.50;3.92;;;;;;;-9.27;57.89;102440.03;4894695;29;20096;-84
2023/01/22 05:36:30;;;;;;;7.72;2.97;;;;;;;-9.16;57.45;102446.66;4879010;29;20057;-85
2023/01/22 05:39:07;;;;;;;18.90;4.13;;;;;;;-9.10;57.56;102428.81;4894330;29;20045;-83
2023/01/22 05:41:34;;;;;;;7.18;4.20;;;;;;;-8.94;57.48;102446.00;4894093;29;20071;-82
2023/01/22 05:44:01;;;;;;;11.27;4.25;;;;;;;-8.78;57.26;102434.66;4893814;29;20140;-82
2023/01/22 05:46:28;;;;;;;6.65;3.90;;;;;;;-8.56;57.14;102445.25;4878609;29;20045;-83
2023/01/22 05:49:20;;;;;;;6.15;3.80;;;;;;;-8.51;56.29;102434.19;4895805;29;20049;-85
2023/01/22 05:51:48;;;;;;;5.57;3.53;;;;;;;-8.45;56.33;102425.00;4901227;29;20073;-83
2023/01/22 05:54:16;;;;;;;7.18;4.18;;;;;;;-8.44;55.89;102413.81;4878366;29;20500;-85
2023/01/22 05:56:43;;;;;;;6.03;3.83;;;;;;;-8.54;55.51;102416.78;4893990;29;20535;-85
2023/01/22 05:59:11;;;;;;;7.55;3.83;;;;;;;-8.33;55.78;102432.44;4878607;29;20073;-82
2023/01/22 06:01:38;;;;;;;7.55;3.72;;;;;;;-8.32;55.18;102426.41;4894205;29;20135;-86
2023/01/22 06:04:05;;;;;;;6.93;3.42;;;;;;;-8.35;54.98;102423.69;4878280;29;20049;-86
2023/01/22 06:06:32;;;;;;;3.58;2.90;;;;;;;-8.41;55.21;102421.75;4894238;29;20114;-84
2023/01/22 06:08:58;;;;;;;4.75;3.20;;;;;;;-8.13;55.23;102421.25;4881302;29;20509;-88
2023/01/22 06:11:30;;;;;;;4.03;2.85;;;;;;;-8.02;54.32;102433.81;4882294;29;20140;-85
2023/01/22 06:13:56;;;;;;;6.78;3.42;;;;;;;-7.93;54.66;102449.84;4880902;29;20490;-85
2023/01/22 06:16:22;;;;;;;4.40;2.90;;;;;;;-7.99;54.42;102439.16;4898094;29;20052;-90
2023/01/22 06:19:16;;;;;;;4.45;3.08;;;;;;;-7.90;54.17;102439.56;4898199;29;20045;-89
2023/01/22 06:22:00;;;;;;;15.00;3.60;;;;;;;-8.02;53.80;102445.09;4894374;29;20047;-82
2023/01/22 06:24:37;;;;;;;4.45;3.22;;;;;;;-8.11;54.03;102439.50;4879482;29;20144;-85
2023/01/22 06:27:10;;;;;;;4.45;2.85;;;;;;;-8.06;54.17;102444.06;4878672;29;20053;-84
2023/01/22 06:30:05;;;;;;;7.28;3.78;;;;;;;-8.10;54.70;102439.56;4878750;29;20052;-85
2023/01/22 06:32:31;;;;;;;6.32;3.13;;;;;;;-8.08;54.75;102437.94;4894496;29;20091;-85
2023/01/22 06:34:59;;;;;;;7.78;3.47;;;;;;;-7.89;54.33;102441.38;4893731;29;20041;-85
2023/01/22 06:37:24;;;;;;;5.68;3.35;;;;;;;-7.66;54.24;102437.19;4894003;29;20048;-86
2023/01/22 06:39:51;;;;;;;6.30;3.25;;;;;;;-7.55;53.86;102438.53;4894894;29;20532;-88
2023/01/22 06:42:21;;;;;;;7.13;3.83;;;;;;;-7.48;53.25;102443.16;4880489;29;20045;-87
2023/01/22 06:44:49;;;;;;;5.22;3.45;;;;;;;-7.42;52.77;102442.53;4881492;29;20483;-89
2023/01/22 06:47:16;;;;;;;4.45;3.08;;;;;;;-7.21;52.64;102434.78;4882698;29;20100;-87
2023/01/22 06:49:42;;;;;;;3.92;3.10;;;;;;;-7.10;52.69;102438.72;4899519;29;20060;-90
2023/01/22 06:52:10;;;;;;;6.25;3.42;;;;;;;-6.98;52.06;102447.00;4898531;29;20465;-84
2023/01/22 06:54:36;;;;;;;4.28;3.00;;;;;;;-6.94;52.15;102450.63;4914393;29;20049;-88
2023/01/22 06:57:04;;;;;;;5.00;3.33;;;;;;;-6.80;51.63;102440.78;4899893;29;20032;-89
2023/01/22 06:59:31;;;;;;;5.40;3.30;;;;;;;-6.58;51.54;102447.69;4916381;29;20048;-87
2023/01/22 07:01:56;;;;;;;6.32;2.80;;;;;;;-6.52;50.90;102443.63;4917239;29;20117;-85
2023/01/22 07:04:22;;;;;;;6.72;4.03;;;;;;;-6.44;50.89;102449.16;4896085;29;20047;-85
2023/01/22 07:06:48;;;;;;;4.95;3.38;;;;;;;-6.25;50.34;102455.94;4880381;29;20104;-85
2023/01/22 07:09:14;;;;;;;6.38;3.88;;;;;;;-6.24;50.41;102455.09;4900701;29;20073;-89
2023/01/22 07:11:40;;;;;;;9.98;4.15;;;;;;;-6.22;50.43;102454.34;4870903;29;20065;-85
2023/01/22 07:14:06;;;;;;;11.20;5.55;;;;;;;-6.01;50.15;102450.81;4884253;29;20584;-83
2023/01/22 07:16:31;;;;;;;5.63;3.72;;;;;;;-5.91;50.25;102455.47;4852306;29;20109;-81
2023/01/22 07:18:58;;;;;;;6.85;3.83;;;;;;;-5.78;49.87;102449.00;4862438;29;20451;-85
2023/01/22 07:21:25;;;;;;;6.55;3.38;;;;;;;-5.77;49.84;102454.25;4864286;29;20049;-85
2023/01/22 07:23:52;;;;;;;25.20;4.45;;;;;;;-5.91;49.58;102450.25;4862445;29;20041;-84
2023/01/22 07:26:18;;;;;;;4.63;2.55;;;;;;;-5.95;49.51;102446.69;4863617;29;20049;-83
2023/01/22 07:28:44;;;;;;;13.48;3.67;;;;;;;-4.84;56.30;102450.50;4867104;29;20049;-88
2023/01/22 07:31:11;;;;;;;21.92;4.43;;;;;;;-4.90;49.65;102445.97;4847838;29;20123;-85
2023/01/22 07:33:37;;;;;;;9.00;4.40;;;;;;;-5.12;48.74;102441.75;4894805;29;20056;-86
2023/01/22 07:36:04;;;;;;;26.33;5.03;;;;;;;-5.27;49.46;102444.72;4882045;29;20052;-85
2023/01/22 07:38:30;;;;;;;7.35;5.05;;;;;;;-5.17;49.88;102446.81;4881334;29;20524;-85
2023/01/22 07:41:04;;;;;;;9.20;5.35;;;;;;;-5.08;48.56;102455.78;4882421;29;20044;-83
2023/01/22 07:43:31;;;;;;;9.75;5.03;;;;;;;-4.99;48.68;102440.47;4887322;29;20453;-90
2023/01/22 07:46:02;;;;;;;9.00;5.63;;;;;;;-5.22;48.80;102427.53;4882407;29;20045;-86
2023/01/22 07:48:31;;;;;;;10.80;5.50;;;;;;;-5.23;48.63;102433.59;4895507;29;20044;-85
2023/01/22 07:51:02;;;;;;;8.32;4.85;;;;;;;-5.20;48.47;102438.00;4880626;29;20413;-82
2023/01/22 07:53:28;;;;;;;9.30;6.30;;;;;;;-5.15;48.48;102447.78;4881166;29;20044;-86
2023/01/22 07:55:54;;;;;;;12.05;6.20;;;;;;;-5.28;48.95;102442.06;4898488;29;20048;-86
2023/01/22 07:58:20;;;;;;;10.85;6.45;;;;;;;-5.20;48.40;102410.19;4897095;29;20049;-85
2023/01/22 08:00:46;;;;;;;12.45;6.20;;;;;;;-5.08;48.13;102435.81;4899827;29;20060;-83
2023/01/22 08:03:14;;;;;;;13.13;5.82;;;;;;;-5.14;47.85;102430.41;4887211;29;20120;-78
2023/01/22 08:05:40;;;;;;;11.38;5.53;;;;;;;-5.08;47.92;102427.09;4881899;29;20053;-84
2023/01/22 08:08:16;;;;;;;11.25;6.38;;;;;;;-4.95;49.74;102434.50;4883802;29;20056;-85
2023/01/22 08:10:43;;;;;;;10.00;6.55;;;;;;;-4.57;48.27;102434.84;4903602;29;20041;-85
2023/01/22 08:13:12;;;;;;;19.95;6.65;;;;;;;-4.49;48.10;102433.34;4882431;29;20137;-82
2023/01/22 08:15:40;;;;;;;19.83;7.00;;;;;;;-4.35;47.72;102429.44;4890919;29;20075;-83
2023/01/22 08:18:06;;;;;;;12.88;6.53;;;;;;;-4.19;47.42;102434.28;4885681;29;20052;-83
2023/01/22 08:20:32;;;;;;;12.05;6.25;;;;;;;-4.30;47.09;102438.28;4884263;29;20052;-80
2023/01/22 08:23:01;;;;;;;16.50;6.93;;;;;;;-4.25;46.73;102428.91;4899272;29;20040;-83
2023/01/22 08:25:28;;;;;;;24.73;8.45;;;;;;;-4.23;46.76;102435.03;4914876;29;20071;-85
2023/01/22 08:27:54;;;;;;;11.52;6.90;;;;;;;-4.06;46.98;102434.63;4915861;29;20059;-84
2023/01/22 08:30:21;;;;;;;14.55;6.63;;;;;;;-4.06;46.09;102429.41;4899454;29;20056;-89
2023/01/22 08:32:49;;;;;;;12.18;6.28;;;;;;;-3.78;46.04;102431.09;4885328;29;20048;-91
2023/01/22 08:35:15;;;;;;;17.42;6.10;;;;;;;-3.61;46.11;102426.31;4898501;29;20056;-84
2023/01/22 08:37:42;;;;;;;9.80;5.40;;;;;;;-3.51;45.24;102425.75;4883285;29;20064;-83
2023/01/22 08:40:09;;;;;;;8.05;4.53;;;;;;;-3.66;44.45;102432.31;4883691;29;20044;-81
2023/01/22 08:42:35;;;;;;;8.02;4.55;;;;;;;-3.48;44.70;102425.81;4895342;29;20115;-81
2023/01/22 08:45:01;;;;;;;20.33;4.82;;;;;;;-3.44;44.64;102427.69;4913978;29;20447;-81
2023/01/22 08:47:27;;;;;;;6.95;4.47;;;;;;;-3.30;44.46;102430.66;4898475;29;20045;-82
2023/01/22 08:49:52;;;;;;;9.25;4.85;;;;;;;-3.07;44.54;102423.41;4898207;29;20045;-83
2023/01/22 08:52:18;;;;;;;7.38;4.50;;;;;;;-2.97;44.13;102426.28;4913629;29;20127;-81
2023/01/22 08:54:44;;;;;;;8.05;5.10;;;;;;;-2.91;44.13;102424.66;4898434;29;20073;-82
2023/01/22 08:57:10;;;;;;;6.32;4.68;;;;;;;-2.75;43.57;102424.19;4882673;29;20045;-81
2023/01/22 08:59:36;;;;;;;7.93;5.30;;;;;;;-2.80;42.72;102424.06;4882443;29;20131;-82
2023/01/22 09:02:02;;;;;;;9.60;5.78;;;;;;;-2.74;43.14;102418.13;4897393;29;20082;-82
2023/01/22 09:04:28;;;;;;;10.02;5.97;;;;;;;-2.53;42.89;102412.47;4913401;29;20040;-84
2023/01/22 09:06:54;;;;;;;13.80;5.57;;;;;;;-2.86;42.54;102415.19;4897576;29;20045;-82
2023/01/22 09:09:20;;;;;;;12.35;5.38;;;;;;;-3.15;42.79;102431.06;4881759;29;20068;-83
2023/01/22 09:11:46;;;;;;;14.43;6.28;;;;;;;-3.16;43.59;102418.81;4899531;29;20539;-83
2023/01/22 09:14:12;;;;;;;12.32;7.00;;;;;;;-3.25;43.51;102427.31;4897845;29;20505;-82
2023/01/22 09:16:39;;;;;;;13.35;7.50;;;;;;;-3.23;43.36;102423.03;4867822;29;20068;-80
2023/01/22 09:19:06;;;;;;;14.32;6.85;;;;;;;-3.24;43.36;102402.03;4880839;29;20057;-81
2023/01/22 09:21:32;;;;;;;14.15;7.00;;;;;;;-2.93;43.14;102416.78;4894853;29;20576;-83
2023/01/22 09:23:59;;;;;;;21.50;6.70;;;;;;;-2.73;42.66;102412.91;4879597;29;20049;-80
2023/01/22 09:26:26;;;;;;;15.52;6.47;;;;;;;-2.53;42.63;102422.94;4894769;29;20053;-82
2023/01/22 09:28:51;;;;;;;21.88;6.35;;;;;;;-2.50;42.32;102426.53;4893532;29;20473;-81
2023/01/22 09:31:17;;;;;;;15.45;6.60;;;;;;;-2.20;42.08;102404.47;4894284;29;20148;-81
2023/01/22 09:33:46;;;;;;;12.60;6.87;;;;;;;-1.92;41.61;102408.53;4880026;29;20059;-82
2023/01/22 09:36:14;;;;;;;13.15;5.65;;;;;;;-1.98;41.33;102408.44;4878930;29;20049;-83
2023/01/22 09:38:41;;;;;;;11.93;6.18;;;;;;;-2.24;41.08;102402.66;4894770;29;20041;-83
2023/01/22 09:41:33;;;;;;;11.43;5.65;;;;;;;-2.13;41.04;102397.63;4894218;29;20076;-80
2023/01/22 09:44:20;;;;;;;11.05;5.20;;;;;;;-2.14;41.51;102401.09;4863325;29;20141;-78
2023/01/22 09:47:20;;;;;;;8.73;5.00;;;;;;;-2.01;41.15;102404.00;4879897;29;20045;-82
2023/01/22 09:49:55;;;;;;;14.13;6.13;;;;;;;-1.26;44.81;102399.31;4853249;29;20052;-86
2023/01/22 09:52:26;;;;;;;9.45;5.50;;;;;;;-1.21;40.73;102400.25;4897717;29;20037;-84
2023/01/22 09:54:53;;;;;;;9.48;5.68;;;;;;;-1.40;40.55;102408.66;4882039;29;20044;-86
2023/01/22 09:57:19;;;;;;;10.30;5.82;;;;;;;-1.45;40.62;102399.84;4881359;29;20064;-83
2023/01/22 09:59:49;;;;;;;7.88;4.55;;;;;;;-1.62;40.31;102399.50;4899080;29;20049;-87
2023/01/22 10:02:24;;;;;;;;;;;;;;;-1.70;40.27;102394.13;4899413;29;20527;-84
2023/01/22 10:05:00;;;;;;;10.13;4.38;;;;;;;-1.81;40.33;102401.78;4899741;29;19924;-80
2023/01/22 10:07:38;;;;;;;12.88;4.40;;;;;;;-1.95;41.35;102400.63;4874601;29;20502;-84
2023/01/22 10:10:25;;;;;;;7.03;4.28;;;;;;;-1.96;41.05;102396.22;4844595;29;20041;-83
2023/01/22 10:12:57;;;;;;;9.43;4.75;;;;;;;-2.12;41.29;102396.78;4871610;29;20052;-81
2023/01/22 10:15:24;;;;;;;8.77;5.03;;;;;;;-2.08;41.52;102398.59;4876890;29;20062;-82
2023/01/22 10:17:56;;;;;;;10.18;5.05;;;;;;;-2.46;41.17;102389.06;4862412;29;20045;-82
2023/01/22 10:20:23;;;;;;;12.27;5.65;;;;;;;-2.30;41.68;102398.13;4878577;29;20048;-85
2023/01/22 10:22:54;;;;;;;13.10;5.65;;;;;;;-2.35;42.24;102391.94;4867415;29;20048;-81
2023/01/22 10:25:19;;;;;;;10.52;5.60;;;;;;;-2.31;41.97;102401.63;4863019;29;20044;-84
2023/01/22 10:27:46;;;;;;;11.35;4.85;;;;;;;-2.32;41.77;102402.47;4878309;29;20528;-83
2023/01/22 10:30:24;;;;;;;10.00;4.75;;;;;;;-2.50;42.10;102386.34;4878363;29;20036;-82
2023/01/22 10:33:06;;;;;;;8.95;4.25;;;;;;;-2.71;42.56;102397.22;4877780;29;20041;-80
2023/01/22 10:35:48;;;;;;;11.25;4.28;;;;;;;-2.76;42.47;102407.59;4878076;29;20136;-86
2023/01/22 10:38:30;;;;;;;6.22;3.15;;;;;;;-2.91;43.07;102408.97;4879124;29;20060;-81
2023/01/22 10:41:01;;;;;;;6.53;2.80;;;;;;;-2.86;43.29;102408.19;4865080;29;20049;-81
2023/01/22 10:43:37;;;;;;;5.95;3.38;;;;;;;-2.92;43.24;102392.38;4882101;29;20448;-82
2023/01/22 10:46:17;;;;;;;5.30;3.10;;;;;;;-2.95;43.41;102408.00;4883117;29;20493;-84
2023/01/22 10:48:43;;;;;;;10.60;3.13;;;;;;;-3.12;43.20;102398.84;4882820;29;20132;-83
2023/01/22 10:51:18;;;;;;;4.72;2.78;;;;;;;-2.93;43.13;102403.69;4884274;29;20429;-86
2023/01/22 10:53:48;;;;;;;3.75;2.60;;;;;;;-2.80;43.03;102397.00;4885166;29;20088;-83
2023/01/22 10:56:28;;;;;;;3.58;2.38;;;;;;;-2.72;42.87;102401.56;4882259;29;20109;-84
2023/01/22 10:58:55;;;;;;;5.00;2.70;;;;;;;-2.86;42.97;102395.13;4866474;29;20049;-81
2023/01/22 11:01:30;;;;;;;5.63;2.58;;;;;;;-2.83;42.75;102397.81;4865804;29;20513;-81
2023/01/22 11:03:56;;;;;;;4.85;2.60;;;;;;;-2.93;43.38;102411.56;4881942;29;20393;-85
2023/01/22 11:06:40;;;;;;;8.48;2.97;;;;;;;-3.05;43.48;102398.13;4850599;29;20048;-83
2023/01/22 11:09:50;;;;;;;5.82;2.75;;;;;;;-3.09;43.97;102393.69;4897221;29;20482;-84
2023/01/22 11:12:34;;;;;;;5.00;2.88;;;;;;;-3.02;43.57;102406.94;4882842;29;20047;-82
2023/01/22 11:15:12;;;;;;;3.53;2.17;;;;;;;-3.21;43.76;102405.63;4885371;29;20059;-85
2023/01/22 11:17:45;;;;;;;5.30;2.50;;;;;;;-3.52;44.22;102414.41;4887510;29;20052;-84
2023/01/22 11:20:22;;;;;;;3.83;2.63;;;;;;;-3.51;44.33;102402.22;4920117;29;20066;-85
2023/01/22 11:23:19;;;;;;;7.10;2.45;;;;;;;-3.61;44.44;102408.03;4903416;29;20036;-82
2023/01/22 11:26:16;;;;;;;5.13;2.60;;;;;;;-3.64;44.74;102407.97;4902952;29;20064;-83
2023/01/22 11:29:13;;;;;;;5.00;2.25;;;;;;;-3.76;44.78;102401.56;4887397;29;20558;-81
2023/01/22 11:32:09;;;;;;;4.57;2.65;;;;;;;-3.80;45.05;102401.41;4887285;29;20135;-83
2023/01/22 11:34:35;;;;;;;5.10;2.53;;;;;;;-3.77;44.91;102398.88;4902673;29;20190;-83
2023/01/22 11:37:11;;;;;;;6.13;2.58;;;;;;;-3.86;45.34;102402.13;4902370;29;20079;-84
2023/01/22 11:40:14;;;;;;;4.93;3.00;;;;;;;-3.76;45.78;102403.25;4918322;29;20068;-81